Time;durP1;ratioP1;P1;durP2;ratioP2;P2;SDS_P1;SDS_P2;PMS_P1;PMS_P2;Temp;Humidity;BMP_temperature;BMP_pressure;BME280_temperature;BME280_humidity;BME280_pressure;Samples;Min_cycle;Max_cycle;Signal;HPM_P1;HPM_P2
2022/08/20 00:00:46;;;;;;;13.73;9.95;;;19.80;99.90;;;;;;3058640;19;20013;-74
2022/08/20 00:01:48;;;;;;;13.07;9.60;;;19.70;99.90;;;;;;3059041;19;20010;-75
2022/08/20 00:02:54;;;;;;;15.50;10.90;;;19.60;99.90;;;;;;3059046;19;20040;-75
2022/08/20 00:03:55;;;;;;;15.35;10.48;;;19.80;99.90;;;;;;3058832;19;20018;-75
2022/08/20 00:05:00;;;;;;;14.15;9.90;;;19.80;99.90;;;;;;3058957;19;20367;-74
2022/08/20 00:06:05;;;;;;;14.13;10.07;;;19.60;99.90;;;;;;3058423;19;20010;-74
2022/08/20 00:07:09;;;;;;;15.55;11.10;;;19.50;99.90;;;;;;3058419;19;20014;-75
2022/08/20 00:08:13;;;;;;;17.70;10.95;;;19.50;99.90;;;;;;3058251;19;20014;-75
2022/08/20 00:09:17;;;;;;;15.20;10.38;;;19.50;99.90;;;;;;3058637;19;20015;-75
2022/08/20 00:10:19;;;;;;;13.68;9.68;;;19.60;99.90;;;;;;3058231;19;20025;-74
2022/08/20 00:11:26;;;;;;;17.95;10.25;;;19.60;99.90;;;;;;3058969;19;20015;-75
2022/08/20 00:12:28;;;;;;;13.80;9.57;;;19.40;99.90;;;;;;3058530;19;20114;-75
2022/08/20 00:13:36;;;;;;;15.85;10.85;;;19.50;99.90;;;;;;3058540;19;20020;-75
2022/08/20 00:14:38;;;;;;;14.50;10.40;;;19.50;99.90;;;;;;3058383;19;20010;-76
2022/08/20 00:15:43;;;;;;;13.30;9.20;;;19.50;99.90;;;;;;3058418;19;20040;-75
2022/08/20 00:16:44;;;;;;;12.60;9.50;;;19.40;99.90;;;;;;3058526;19;20014;-75
2022/08/20 00:17:49;;;;;;;18.30;10.55;;;19.30;99.90;;;;;;3058477;19;20010;-75
2022/08/20 00:18:50;;;;;;;15.80;9.60;;;19.40;99.90;;;;;;3057839;19;20031;-75
2022/08/20 00:19:54;;;;;;;15.00;10.38;;;19.50;99.90;;;;;;3058253;19;20002;-74
2022/08/20 00:20:56;;;;;;;14.80;10.32;;;19.30;99.90;;;;;;3058169;19;20010;-75
2022/08/20 00:22:00;;;;;;;14.10;9.65;;;19.30;99.90;;;;;;3058233;19;20087;-75
2022/08/20 00:23:03;;;;;;;16.77;10.85;;;19.40;99.90;;;;;;3058458;19;20003;-75
2022/08/20 00:24:09;;;;;;;15.00;9.70;;;19.40;99.90;;;;;;3058072;19;20497;-75
2022/08/20 00:25:11;;;;;;;14.43;9.57;;;19.50;99.90;;;;;;3058228;19;20361;-75
2022/08/20 00:26:16;;;;;;;16.27;11.32;;;19.40;99.90;;;;;;3058183;19;20100;-75
2022/08/20 00:27:17;;;;;;;14.43;9.93;;;19.40;99.90;;;;;;3057522;19;20015;-76
2022/08/20 00:28:21;;;;;;;14.45;10.07;;;19.50;99.90;;;;;;3058086;19;20484;-75
2022/08/20 00:29:23;;;;;;;14.93;10.02;;;19.50;99.90;;;;;;3058468;19;20010;-75
2022/08/20 00:30:28;;;;;;;17.05;10.38;;;19.40;99.90;;;;;;3057429;19;20051;-75
2022/08/20 00:31:29;;;;;;;12.57;9.07;;;19.40;99.90;;;;;;3057704;19;20010;-75
2022/08/20 00:32:34;;;;;;;15.18;9.75;;;19.30;99.90;;;;;;3058112;19;20118;-75
2022/08/20 00:33:36;;;;;;;12.68;9.65;;;19.60;99.90;;;;;;3058148;19;20010;-75
2022/08/20 00:34:41;;;;;;;17.02;10.18;;;19.30;99.90;;;;;;3058067;19;20075;-75
2022/08/20 00:35:44;;;;;;;14.02;9.73;;;19.40;99.90;;;;;;3058187;19;20354;-75
2022/08/20 00:36:49;;;;;;;17.48;10.63;;;19.50;99.90;;;;;;3058043;19;20011;-75
2022/08/20 00:37:51;;;;;;;12.95;9.63;;;19.50;99.90;;;;;;3058163;19;20014;-75
2022/08/20 00:38:55;;;;;;;15.20;10.35;;;19.40;99.90;;;;;;3057960;19;20422;-75
2022/08/20 00:39:59;;;;;;;15.43;10.23;;;19.40;99.90;;;;;;3058093;19;20019;-75
2022/08/20 00:41:04;;;;;;;13.90;9.45;;;19.30;99.90;;;;;;3057901;19;20073;-75
2022/08/20 00:42:05;;;;;;;12.20;9.27;;;19.40;99.90;;;;;;3058129;19;20002;-75
2022/08/20 00:43:24;;;;;;;;;;;19.30;99.90;;;;;;3058531;19;20014;-75
2022/08/20 00:44:28;;;;;;;13.48;9.20;;;19.20;99.90;;;;;;3058253;19;19922;-75
2022/08/20 00:45:32;;;;;;;14.75;9.73;;;19.30;99.90;;;;;;3057956;19;20078;-75
2022/08/20 00:46:36;;;;;;;16.70;9.98;;;19.40;99.90;;;;;;3058019;19;20021;-75
2022/08/20 00:47:39;;;;;;;16.23;10.35;;;19.40;99.90;;;;;;3057613;19;20010;-75
2022/08/20 00:48:46;;;;;;;14.00;9.88;;;19.20;99.90;;;;;;3058101;19;20014;-75
2022/08/20 00:49:47;;;;;;;16.67;10.40;;;19.20;99.90;;;;;;3057791;19;20024;-75
2022/08/20 00:50:52;;;;;;;18.33;10.35;;;19.30;99.90;;;;;;3056952;19;20086;-75
2022/08/20 00:52:00;;;;;;;16.20;10.15;;;19.10;99.90;;;;;;3057012;19;20007;-75
2022/08/20 00:53:04;;;;;;;13.90;9.48;;;19.30;99.90;;;;;;3057755;19;20040;-74
2022/08/20 00:54:12;;;;;;;12.63;10.00;;;18.70;99.90;;;;;;3057714;19;20014;-75
2022/08/20 00:55:18;;;;;;;15.23;9.80;;;19.30;99.90;;;;;;3057808;19;20066;-74
2022/08/20 00:56:22;;;;;;;17.65;10.15;;;19.10;99.90;;;;;;3058016;19;20013;-75
2022/08/20 00:57:30;;;;;;;15.90;10.45;;;19.30;99.90;;;;;;3057583;19;20480;-75
2022/08/20 00:58:36;;;;;;;16.10;10.68;;;19.20;99.90;;;;;;3057797;19;20002;-75
2022/08/20 00:59:39;;;;;;;16.67;9.88;;;19.20;99.90;;;;;;3057671;19;19999;-75
2022/08/20 01:00:45;;;;;;;14.80;9.70;;;19.10;99.90;;;;;;3057843;19;20374;-75
2022/08/20 01:01:47;;;;;;;13.40;10.18;;;19.10;99.90;;;;;;3057560;19;20027;-75
2022/08/20 01:02:52;;;;;;;15.25;9.80;;;19.20;99.90;;;;;;3057943;19;20024;-75
2022/08/20 01:03:55;;;;;;;13.40;9.55;;;19.30;99.90;;;;;;3057695;19;20027;-75
2022/08/20 01:04:59;;;;;;;14.85;9.30;;;19.20;99.90;;;;;;3057747;19;20115;-75
2022/08/20 01:06:00;;;;;;;19.33;10.43;;;19.20;99.90;;;;;;3057368;19;20019;-74
2022/08/20 01:07:07;;;;;;;18.80;10.10;;;19.00;99.90;;;;;;3057757;19;20003;-75
2022/08/20 01:08:08;;;;;;;15.20;9.48;;;19.30;99.90;;;;;;3056846;19;20023;-75
2022/08/20 01:09:13;;;;;;;16.98;9.85;;;19.30;99.90;;;;;;3057899;19;20010;-76
2022/08/20 01:10:21;;;;;;;15.43;9.80;;;19.20;99.90;;;;;;3060754;19;20386;-75
2022/08/20 01:11:31;;;;;;;14.63;9.80;;;19.20;99.90;;;;;;3060707;19;20010;-75
2022/08/20 01:12:33;;;;;;;17.50;9.35;;;18.90;99.90;;;;;;3060673;19;20038;-74
2022/08/20 01:13:39;;;;;;;15.27;9.95;;;19.30;99.90;;;;;;3060505;19;20037;-75
2022/08/20 01:14:44;;;;;;;17.60;10.18;;;19.20;99.90;;;;;;3060493;19;20011;-75
2022/08/20 01:15:55;;;;;;;14.25;9.40;;;19.10;99.90;;;;;;3059407;19;20521;-75
2022/08/20 01:17:04;;;;;;;14.18;9.23;;;19.20;99.90;;;;;;3060535;19;20031;-75
2022/08/20 01:18:15;;;;;;;16.05;9.52;;;19.10;99.90;;;;;;3060562;19;20006;-75
2022/08/20 01:19:19;;;;;;;15.50;8.98;;;19.10;99.90;;;;;;3060227;19;20501;-75
2022/08/20 01:20:26;;;;;;;17.77;9.45;;;19.20;99.90;;;;;;3060502;19;20018;-75
2022/08/20 01:21:31;;;;;;;13.07;9.20;;;19.20;99.90;;;;;;3060745;19;20017;-75
2022/08/20 01:24:05;;;;;;;13.07;9.10;;;19.10;99.90;;;;;;3060407;19;20031;-74
2022/08/20 01:25:13;;;;;;;16.90;9.73;;;19.10;99.90;;;;;;3060386;19;20077;-75
2022/08/20 01:26:23;;;;;;;13.88;9.98;;;19.00;99.90;;;;;;3060492;19;20078;-75
2022/08/20 01:27:25;;;;;;;15.57;9.63;;;19.10;99.90;;;;;;3059696;19;20014;-75
2022/08/20 01:28:32;;;;;;;15.68;9.52;;;19.10;99.90;;;;;;3059527;19;20002;-75
2022/08/20 01:29:40;;;;;;;13.00;9.32;;;19.00;99.90;;;;;;3060425;19;20414;-74
2022/08/20 01:30:42;;;;;;;15.35;9.48;;;19.10;99.90;;;;;;3060202;19;20040;-74
2022/08/20 01:31:46;;;;;;;14.35;9.57;;;19.00;99.90;;;;;;3060598;19;20090;-75
2022/08/20 01:32:48;;;;;;;15.40;9.13;;;18.90;99.90;;;;;;3060243;19;20014;-74
2022/08/20 01:33:53;;;;;;;14.95;9.50;;;18.90;99.90;;;;;;3060412;19;20020;-75
2022/08/20 01:34:54;;;;;;;19.38;10.25;;;18.80;99.90;;;;;;3060297;19;20426;-75
2022/08/20 01:35:59;;;;;;;15.75;8.88;;;18.90;99.90;;;;;;3060402;19;20027;-75
2022/08/20 01:37:00;;;;;;;16.23;9.10;;;18.90;99.90;;;;;;3060198;19;20042;-74
2022/08/20 01:38:04;;;;;;;16.23;9.00;;;18.60;99.90;;;;;;3060396;19;20007;-75
2022/08/20 01:39:08;;;;;;;15.40;9.40;;;18.90;99.90;;;;;;3060154;19;20014;-75
2022/08/20 01:40:19;;;;;;;16.73;10.05;;;18.90;99.90;;;;;;3060392;19;20025;-75
2022/08/20 01:41:50;;;;;;;14.88;9.02;;;18.90;99.90;;;;;;3060349;19;20460;-75
2022/08/20 01:42:51;;;;;;;13.90;9.13;;;18.90;99.90;;;;;;3060204;19;20029;-75
2022/08/20 01:43:57;;;;;;;16.65;9.50;;;18.80;99.90;;;;;;3060339;19;20026;-75
2022/08/20 01:44:58;;;;;;;14.30;8.88;;;18.80;99.90;;;;;;3060501;19;19999;-76
2022/08/20 01:46:02;;;;;;;14.93;8.85;;;18.70;99.90;;;;;;3060153;19;20478;-75
2022/08/20 01:47:11;;;;;;;12.68;8.35;;;18.90;99.90;;;;;;3060239;19;20114;-75
2022/08/20 01:48:16;;;;;;;13.98;8.93;;;18.90;99.90;;;;;;3059528;19;20021;-74
2022/08/20 01:49:21;;;;;;;12.77;8.43;;;18.90;99.90;;;;;;3059769;19;20019;-75
2022/08/20 01:50:29;;;;;;;14.10;8.30;;;18.90;99.90;;;;;;3060307;19;20393;-74
2022/08/20 01:51:30;;;;;;;13.30;8.93;;;18.80;99.90;;;;;;3060118;19;20022;-75
2022/08/20 01:52:41;;;;;;;13.38;8.55;;;18.80;99.90;;;;;;3060394;19;20574;-74
2022/08/20 01:53:45;;;;;;;16.40;9.23;;;18.70;99.90;;;;;;3060066;19;20003;-74
2022/08/20 01:54:49;;;;;;;18.95;9.43;;;18.80;99.90;;;;;;3059970;19;20360;-75
2022/08/20 01:55:50;;;;;;;14.68;8.23;;;18.60;99.90;;;;;;3059935;19;20017;-74
2022/08/20 01:57:00;;;;;;;13.13;8.40;;;18.80;99.90;;;;;;3060160;19;20476;-76
2022/08/20 01:58:01;;;;;;;13.93;8.70;;;18.90;99.90;;;;;;3060007;19;20007;-75
2022/08/20 01:59:08;;;;;;;13.98;8.52;;;18.80;99.90;;;;;;3060519;19;20327;-75
2022/08/20 02:00:14;;;;;;;11.75;8.15;;;18.80;99.90;;;;;;3061379;19;20039;-75
2022/08/20 02:01:24;;;;;;;13.20;8.60;;;18.80;99.90;;;;;;3060508;19;20011;-75
2022/08/20 02:02:25;;;;;;;12.25;8.40;;;18.80;99.90;;;;;;3060005;19;20020;-75
2022/08/20 02:03:29;;;;;;;15.10;8.73;;;18.90;99.90;;;;;;3060218;19;20476;-75
2022/08/20 02:04:31;;;;;;;11.70;7.82;;;18.90;99.90;;;;;;3059962;19;20516;-74
2022/08/20 02:05:34;;;;;;;14.68;8.45;;;18.70;99.90;;;;;;3060196;19;20559;-75
2022/08/20 02:06:39;;;;;;;16.23;7.70;;;18.80;99.90;;;;;;3059994;19;20498;-75
2022/08/20 02:07:43;;;;;;;16.65;8.98;;;18.70;99.90;;;;;;3060600;19;20006;-76
2022/08/20 02:08:45;;;;;;;12.45;7.82;;;18.90;99.90;;;;;;3059012;19;20011;-75
2022/08/20 02:09:49;;;;;;;11.57;7.90;;;18.60;99.90;;;;;;3060211;19;20344;-75
2022/08/20 02:10:50;;;;;;;12.82;8.35;;;18.70;99.90;;;;;;3059916;19;20014;-74
2022/08/20 02:11:57;;;;;;;13.77;8.40;;;18.60;99.90;;;;;;3059992;19;20015;-74
2022/08/20 02:12:59;;;;;;;14.32;8.07;;;18.80;99.90;;;;;;3059881;19;20018;-75
2022/08/20 02:14:05;;;;;;;14.23;8.20;;;18.80;99.90;;;;;;3059121;19;20388;-75
2022/08/20 02:15:11;;;;;;;11.75;8.10;;;18.80;99.90;;;;;;3058931;19;20006;-75
2022/08/20 02:16:15;;;;;;;13.02;8.02;;;18.70;99.90;;;;;;3059172;19;20003;-75
2022/08/20 02:17:17;;;;;;;12.85;8.30;;;18.80;99.90;;;;;;3059722;19;20014;-75
2022/08/20 02:18:21;;;;;;;15.07;8.15;;;18.80;99.90;;;;;;3059764;19;20013;-74
2022/08/20 02:19:27;;;;;;;13.90;8.35;;;18.70;99.90;;;;;;3059004;19;20031;-74
2022/08/20 02:20:32;;;;;;;14.40;8.70;;;18.80;99.90;;;;;;3058528;19;20077;-75
2022/08/20 02:21:35;;;;;;;12.85;8.30;;;18.70;99.90;;;;;;3059660;19;20040;-75
2022/08/20 02:22:44;;;;;;;15.05;8.50;;;18.60;99.90;;;;;;3059701;19;20480;-75
2022/08/20 02:23:45;;;;;;;15.48;8.77;;;18.80;99.90;;;;;;3059574;19;20017;-74
2022/08/20 02:24:50;;;;;;;16.00;8.10;;;18.80;99.90;;;;;;3059962;19;20423;-75
2022/08/20 02:25:51;;;;;;;17.60;8.68;;;18.60;99.90;;;;;;3059718;19;20002;-75
2022/08/20 02:26:58;;;;;;;14.10;8.60;;;18.70;99.90;;;;;;3059518;19;20007;-75
2022/08/20 02:28:01;;;;;;;15.90;7.97;;;18.80;99.90;;;;;;3059658;19;20010;-75
2022/08/20 02:29:08;;;;;;;12.30;7.45;;;18.60;99.90;;;;;;3059641;19;20007;-75
2022/08/20 02:30:14;;;;;;;14.95;8.68;;;18.60;99.90;;;;;;3059685;19;20006;-75
2022/08/20 02:31:20;;;;;;;14.25;8.48;;;18.50;99.90;;;;;;3059426;19;20511;-74
2022/08/20 02:32:21;;;;;;;17.45;9.10;;;18.60;99.90;;;;;;3059650;19;20483;-75
2022/08/20 02:33:25;;;;;;;11.18;7.70;;;18.60;99.90;;;;;;3059785;19;20070;-75
2022/08/20 02:34:27;;;;;;;16.13;8.60;;;18.60;99.90;;;;;;3059528;19;20035;-75
2022/08/20 02:35:32;;;;;;;13.60;8.50;;;18.70;99.90;;;;;;3059738;19;20019;-75
2022/08/20 02:36:35;;;;;;;13.70;8.43;;;18.60;99.90;;;;;;3059602;19;20021;-76
2022/08/20 02:37:40;;;;;;;12.55;7.90;;;18.60;99.90;;;;;;3059541;19;20002;-75
2022/08/20 02:38:45;;;;;;;13.68;8.30;;;18.50;99.90;;;;;;3059672;19;20468;-75
2022/08/20 02:39:46;;;;;;;14.20;8.23;;;18.50;99.90;;;;;;3059528;19;20014;-75
2022/08/20 02:40:50;;;;;;;15.95;8.52;;;18.50;99.90;;;;;;3059932;19;20021;-75
2022/08/20 02:41:54;;;;;;;18.02;8.63;;;18.50;99.90;;;;;;3059494;19;20101;-75
2022/08/20 02:42:58;;;;;;;15.30;8.15;;;18.40;99.90;;;;;;3059487;19;20062;-75
2022/08/20 02:44:00;;;;;;;16.65;8.35;;;18.50;99.90;;;;;;3059310;19;20044;-74
2022/08/20 02:45:04;;;;;;;15.02;7.88;;;18.50;99.90;;;;;;3059509;19;20003;-76
2022/08/20 02:46:06;;;;;;;14.48;8.00;;;18.20;99.90;;;;;;3059297;19;20010;-75
2022/08/20 02:47:10;;;;;;;16.88;7.35;;;18.50;99.90;;;;;;3059816;19;19999;-75
2022/08/20 02:48:19;;;;;;;18.13;7.93;;;18.50;99.90;;;;;;3059139;19;20653;-75
2022/08/20 02:49:23;;;;;;;13.52;7.60;;;18.50;99.90;;;;;;3059191;19;20038;-75
2022/08/20 02:50:25;;;;;;;13.05;7.68;;;18.40;99.90;;;;;;3059395;19;20025;-74
2022/08/20 02:51:30;;;;;;;11.10;6.72;;;18.30;99.90;;;;;;3059516;19;20014;-75
2022/08/20 02:52:31;;;;;;;13.55;7.00;;;18.40;99.90;;;;;;3059385;19;20017;-75
2022/08/20 02:53:37;;;;;;;11.80;7.43;;;18.50;99.90;;;;;;3059491;19;20346;-74
2022/08/20 02:54:39;;;;;;;15.35;7.55;;;18.40;99.90;;;;;;3059267;19;20014;-74
2022/08/20 02:55:43;;;;;;;22.75;7.43;;;18.50;99.90;;;;;;3059548;19;20010;-75
2022/08/20 02:56:44;;;;;;;12.15;6.75;;;18.50;99.90;;;;;;3059336;19;20026;-74
2022/08/20 02:57:51;;;;;;;14.80;6.72;;;18.40;99.90;;;;;;3059269;19;20376;-74
2022/08/20 02:58:54;;;;;;;12.70;6.97;;;18.40;99.90;;;;;;3059863;19;20026;-75
2022/08/20 02:59:56;;;;;;;16.90;7.93;;;18.30;99.90;;;;;;3059577;19;19995;-76
2022/08/20 03:01:00;;;;;;;14.25;7.45;;;18.20;99.90;;;;;;3059081;19;20078;-76
2022/08/20 03:02:02;;;;;;;13.50;6.70;;;18.50;99.90;;;;;;3059447;19;20021;-74
2022/08/20 03:03:06;;;;;;;16.67;7.45;;;18.50;99.90;;;;;;3059058;19;20047;-75
2022/08/20 03:04:07;;;;;;;15.82;6.57;;;18.40;99.90;;;;;;3059458;19;20604;-74
2022/08/20 03:05:12;;;;;;;12.05;6.60;;;18.40;99.90;;;;;;3059427;19;20088;-75
2022/08/20 03:06:17;;;;;;;13.05;7.03;;;18.60;99.90;;;;;;3059629;19;20022;-73
2022/08/20 03:07:19;;;;;;;12.65;6.88;;;18.30;99.90;;;;;;3059289;19;20350;-73
2022/08/20 03:08:23;;;;;;;11.55;7.00;;;18.30;99.90;;;;;;3059267;19;20473;-74
2022/08/20 03:09:25;;;;;;;20.17;7.20;;;18.20;99.90;;;;;;3059698;19;20017;-74
2022/08/20 03:10:32;;;;;;;13.75;6.32;;;18.30;99.90;;;;;;3059247;19;20011;-74
2022/08/20 03:11:38;;;;;;;15.82;6.80;;;18.10;99.90;;;;;;3059189;19;20476;-74
2022/08/20 03:12:40;;;;;;;14.75;7.10;;;18.30;99.90;;;;;;3058491;19;20019;-75
2022/08/20 03:13:46;;;;;;;;;;;17.60;99.90;;;;;;3058754;19;20039;-75
2022/08/20 03:14:47;;;;;;;14.77;7.03;;;18.20;99.90;;;;;;3059267;19;19961;-75
2022/08/20 03:15:53;;;;;;;13.63;6.78;;;18.10;99.90;;;;;;3059208;19;20034;-75
2022/08/20 03:16:54;;;;;;;17.92;7.18;;;18.20;99.90;;;;;;3059492;19;20014;-75
2022/08/20 03:17:58;;;;;;;13.85;7.00;;;19.20;99.90;;;;;;3059254;19;20006;-74
2022/08/20 03:18:59;;;;;;;12.32;6.65;;;18.20;99.90;;;;;;3058615;19;20063;-75
2022/08/20 03:20:03;;;;;;;17.90;6.88;;;18.40;99.90;;;;;;3059329;19;20065;-74
2022/08/20 03:21:07;;;;;;;11.50;6.10;;;18.00;99.90;;;;;;3059019;19;20018;-74
2022/08/20 03:22:11;;;;;;;14.65;6.72;;;18.20;99.90;;;;;;3058865;19;20010;-75
2022/08/20 03:23:12;;;;;;;17.33;6.78;;;18.20;99.90;;;;;;3058925;19;20003;-74
2022/08/20 03:24:16;;;;;;;11.82;7.15;;;18.00;99.90;;;;;;3058964;19;20077;-74
2022/08/20 03:25:18;;;;;;;13.70;6.35;;;18.10;99.90;;;;;;3058965;19;20014;-74
2022/08/20 03:26:22;;;;;;;16.55;6.45;;;18.00;99.90;;;;;;3059299;19;20032;-75
2022/08/20 03:27:24;;;;;;;21.17;6.78;;;19.20;99.90;;;;;;3058656;19;20006;-75
2022/08/20 03:28:28;;;;;;;13.88;6.60;;;18.00;99.90;;;;;;3059030;19;20014;-75
2022/08/20 03:29:32;;;;;;;12.13;6.40;;;18.10;99.90;;;;;;3058991;19;20017;-75
2022/08/20 03:30:36;;;;;;;10.77;6.43;;;18.20;99.90;;;;;;3058932;19;20007;-75
2022/08/20 03:31:37;;;;;;;10.88;6.80;;;18.20;99.90;;;;;;3058014;19;20357;-75
2022/08/20 03:32:42;;;;;;;13.77;6.38;;;18.10;99.90;;;;;;3057772;19;20011;-75
2022/08/20 03:33:46;;;;;;;16.13;7.40;;;18.10;99.90;;;;;;3058654;19;20687;-74
2022/08/20 03:34:47;;;;;;;11.60;6.20;;;18.00;99.90;;;;;;3058759;19;20346;-74
2022/08/20 03:35:52;;;;;;;12.77;6.32;;;18.10;99.90;;;;;;3058710;19;20364;-74
2022/08/20 03:36:55;;;;;;;12.27;6.97;;;18.00;99.90;;;;;;3058957;19;20472;-74
2022/08/20 03:37:57;;;;;;;13.80;6.57;;;18.10;99.90;;;;;;3058726;19;20018;-75
2022/08/20 03:39:04;;;;;;;11.98;6.03;;;18.00;99.90;;;;;;3058789;19;20010;-75
2022/08/20 03:40:08;;;;;;;11.93;5.68;;;17.90;99.90;;;;;;3058741;19;20006;-74
2022/08/20 03:41:12;;;;;;;15.15;6.38;;;18.00;99.90;;;;;;3058650;19;20013;-75
2022/08/20 03:42:13;;;;;;;11.13;6.20;;;18.10;99.90;;;;;;3058725;19;20017;-75
2022/08/20 03:43:18;;;;;;;15.07;6.25;;;18.00;99.90;;;;;;3058989;19;20002;-75
2022/08/20 03:44:19;;;;;;;15.15;6.40;;;17.90;99.90;;;;;;3058602;19;20018;-75
2022/08/20 03:45:28;;;;;;;10.90;5.93;;;18.20;99.90;;;;;;3059070;19;20002;-75
2022/08/20 03:46:29;;;;;;;14.85;6.20;;;18.00;99.90;;;;;;3058638;19;20015;-75
2022/08/20 03:47:33;;;;;;;10.75;5.68;;;18.00;99.90;;;;;;3059105;19;20467;-75
2022/08/20 03:48:35;;;;;;;9.35;5.68;;;18.10;99.90;;;;;;3058429;19;20389;-75
2022/08/20 03:49:38;;;;;;;11.80;5.88;;;17.90;99.90;;;;;;3058749;19;20015;-74
2022/08/20 03:50:41;;;;;;;12.70;6.70;;;18.00;99.90;;;;;;3058361;19;20487;-75
2022/08/20 03:51:45;;;;;;;11.70;5.90;;;17.90;99.90;;;;;;3058672;19;19998;-74
2022/08/20 03:52:46;;;;;;;12.15;6.15;;;17.80;99.90;;;;;;3058439;19;20011;-75
2022/08/20 03:53:50;;;;;;;10.77;5.85;;;17.70;99.90;;;;;;3058610;19;20011;-75
2022/08/20 03:54:51;;;;;;;16.50;6.28;;;17.90;99.90;;;;;;3058525;19;20011;-74
2022/08/20 03:55:56;;;;;;;11.25;6.00;;;17.80;99.90;;;;;;3058780;19;20076;-75
2022/08/20 03:56:58;;;;;;;12.75;6.03;;;18.00;99.90;;;;;;3058473;19;20022;-75
2022/08/20 03:58:05;;;;;;;14.88;6.25;;;17.90;99.90;;;;;;3059791;19;20014;-75
2022/08/20 03:59:08;;;;;;;13.43;6.50;;;17.80;99.90;;;;;;3058453;19;20389;-75
2022/08/20 04:00:14;;;;;;;18.63;6.10;;;17.70;99.90;;;;;;3058767;19;20010;-75
2022/08/20 04:01:18;;;;;;;9.95;5.75;;;17.80;99.90;;;;;;3058372;19;20096;-75
2022/08/20 04:02:23;;;;;;;13.32;5.47;;;17.70;99.90;;;;;;3058808;19;20007;-75
2022/08/20 04:03:28;;;;;;;14.13;6.13;;;17.80;99.90;;;;;;3058416;19;20022;-75
2022/08/20 04:04:29;;;;;;;13.27;6.28;;;17.70;99.90;;;;;;3058331;19;20082;-75
2022/08/20 04:05:35;;;;;;;12.98;5.25;;;17.80;99.90;;;;;;3058377;19;20081;-74
2022/08/20 04:06:36;;;;;;;13.52;6.05;;;17.90;99.90;;;;;;3058439;19;20484;-75
2022/08/20 04:07:40;;;;;;;12.63;5.75;;;17.80;99.90;;;;;;3058215;19;20165;-74
2022/08/20 04:08:41;;;;;;;12.35;5.57;;;17.70;99.90;;;;;;3058406;19;20362;-74
2022/08/20 04:09:45;;;;;;;11.45;5.95;;;17.80;99.90;;;;;;3058466;19;20027;-75
2022/08/20 04:10:48;;;;;;;11.25;5.78;;;17.80;99.90;;;;;;3058251;19;20007;-75
2022/08/20 04:11:59;;;;;;;10.93;5.38;;;17.70;99.90;;;;;;3058283;19;20014;-75
2022/08/20 04:13:01;;;;;;;14.60;6.00;;;17.80;99.90;;;;;;3058286;19;20014;-75
2022/08/20 04:14:04;;;;;;;12.90;5.55;;;17.70;99.90;;;;;;3057689;19;20036;-74
2022/08/20 04:15:09;;;;;;;14.82;5.78;;;17.70;99.90;;;;;;3058497;19;20475;-75
2022/08/20 04:16:13;;;;;;;15.68;5.75;;;17.80;99.90;;;;;;3058200;19;20330;-75
2022/08/20 04:17:18;;;;;;;13.77;5.85;;;17.60;99.90;;;;;;3058303;19;20009;-75
2022/08/20 04:18:24;;;;;;;15.07;5.88;;;17.60;99.90;;;;;;3058246;19;20010;-74
2022/08/20 04:19:25;;;;;;;13.35;5.38;;;17.70;99.90;;;;;;3057962;19;20491;-75
2022/08/20 04:20:29;;;;;;;11.35;5.55;;;17.80;99.90;;;;;;3058279;19;20070;-74
2022/08/20 04:21:32;;;;;;;12.20;5.30;;;17.70;99.90;;;;;;3058183;19;20089;-75
2022/08/20 04:22:35;;;;;;;12.68;5.40;;;17.80;99.90;;;;;;3058179;19;20386;-72
2022/08/20 04:23:38;;;;;;;11.27;5.60;;;17.70;99.90;;;;;;3058193;19;20052;-75
2022/08/20 04:24:42;;;;;;;11.73;5.68;;;17.60;99.90;;;;;;3058049;19;20468;-74
2022/08/20 04:25:44;;;;;;;12.10;5.10;;;17.70;99.90;;;;;;3058000;19;20461;-75
2022/08/20 04:26:48;;;;;;;17.52;5.15;;;17.60;99.90;;;;;;3058306;19;20023;-75
2022/08/20 04:27:50;;;;;;;12.90;5.20;;;17.40;99.90;;;;;;3058156;19;20480;-75
2022/08/20 04:28:54;;;;;;;12.57;4.90;;;15.50;99.90;;;;;;3058288;19;20082;-75
2022/08/20 04:29:55;;;;;;;11.60;5.07;;;18.20;99.90;;;;;;3058310;19;20019;-74
2022/08/20 04:31:02;;;;;;;12.65;5.00;;;17.80;99.90;;;;;;3058219;19;20018;-75
2022/08/20 04:32:05;;;;;;;11.18;5.07;;;17.70;99.90;;;;;;3058210;19;20002;-75
2022/08/20 04:33:12;;;;;;;12.00;5.00;;;17.50;99.90;;;;;;3058026;19;20027;-75
2022/08/20 04:34:15;;;;;;;12.00;5.00;;;17.60;99.90;;;;;;3058075;19;20035;-74
2022/08/20 04:35:20;;;;;;;12.95;4.88;;;17.40;99.90;;;;;;3057900;19;20476;-75
2022/08/20 04:36:21;;;;;;;12.10;4.88;;;17.50;99.90;;;;;;3058052;19;20007;-74
2022/08/20 04:37:25;;;;;;;11.52;5.03;;;17.60;99.90;;;;;;3058114;19;20003;-75
2022/08/20 04:38:27;;;;;;;9.48;4.78;;;17.40;99.90;;;;;;3058172;19;20014;-75
2022/08/20 04:39:30;;;;;;;11.10;4.80;;;17.60;99.90;;;;;;3058193;19;20006;-76
2022/08/20 04:41:50;;;;;;;8.57;4.50;;;17.50;99.90;;;;;;3058246;19;20078;-75
2022/08/20 04:42:54;;;;;;;15.30;4.75;;;17.60;99.90;;;;;;3057935;19;20010;-75
2022/08/20 04:43:56;;;;;;;11.63;4.55;;;17.50;99.90;;;;;;3061033;19;20003;-75
2022/08/20 04:45:00;;;;;;;11.95;4.22;;;17.70;99.90;;;;;;3061167;19;20006;-75
2022/08/20 04:46:08;;;;;;;9.88;4.40;;;17.70;99.90;;;;;;3061135;19;20033;-75
2022/08/20 04:47:09;;;;;;;14.48;4.28;;;16.70;99.90;;;;;;3061000;19;20042;-75
2022/08/20 04:48:16;;;;;;;11.27;4.57;;;17.60;99.90;;;;;;3061261;19;20018;-75
2022/08/20 04:49:25;;;;;;;11.63;4.28;;;17.70;99.90;;;;;;3060081;19;20010;-75
2022/08/20 04:50:29;;;;;;;12.07;4.55;;;17.70;99.90;;;;;;3061010;19;20077;-74
2022/08/20 04:51:30;;;;;;;11.63;4.35;;;17.80;99.90;;;;;;3061144;19;20019;-75
2022/08/20 04:52:34;;;;;;;;;;;17.60;99.90;;;;;;3061951;19;20007;-75
2022/08/20 04:53:36;;;;;;;14.98;4.22;;;17.60;99.90;;;;;;3061066;19;19919;-75
2022/08/20 04:54:40;;;;;;;11.98;3.67;;;17.60;99.90;;;;;;3061200;19;20360;-75
2022/08/20 04:55:42;;;;;;;12.20;4.28;;;17.50;99.90;;;;;;3061015;19;20061;-76
2022/08/20 04:56:47;;;;;;;15.05;4.22;;;17.70;99.90;;;;;;3062036;19;20011;-75
2022/08/20 04:57:48;;;;;;;9.68;3.72;;;17.70;99.90;;;;;;3060937;19;20018;-75
2022/08/20 04:58:52;;;;;;;10.57;4.15;;;17.50;99.90;;;;;;3061176;19;20010;-76
2022/08/20 04:59:53;;;;;;;13.57;4.20;;;17.60;99.90;;;;;;3060830;19;20014;-75
2022/08/20 05:00:59;;;;;;;11.77;3.88;;;17.60;99.90;;;;;;3060940;19;20023;-75
2022/08/20 05:02:01;;;;;;;9.90;3.85;;;17.60;99.90;;;;;;3060964;19;20018;-75
2022/08/20 05:03:05;;;;;;;8.98;3.53;;;17.70;99.90;;;;;;3060869;19;20036;-74
2022/08/20 05:04:09;;;;;;;9.63;3.80;;;17.60;99.90;;;;;;3061072;19;20363;-75
2022/08/20 05:05:14;;;;;;;11.88;3.90;;;17.80;99.90;;;;;;3060826;19;20014;-75
2022/08/20 05:06:16;;;;;;;7.93;3.42;;;17.70;99.90;;;;;;3060846;19;20017;-75
2022/08/20 05:07:20;;;;;;;9.23;3.67;;;17.60;99.90;;;;;;3060598;19;20035;-75
2022/08/20 05:08:22;;;;;;;9.30;3.10;;;17.70;99.90;;;;;;3060816;19;19998;-75
2022/08/20 05:09:26;;;;;;;10.45;4.03;;;17.80;99.90;;;;;;3060068;19;20092;-74
2022/08/20 05:10:28;;;;;;;12.73;4.45;;;17.60;99.90;;;;;;3060677;19;20039;-75
2022/08/20 05:11:32;;;;;;;10.38;3.75;;;17.50;99.90;;;;;;3060752;19;20005;-75
2022/08/20 05:12:33;;;;;;;10.05;3.58;;;17.70;99.90;;;;;;3060770;19;20023;-76
2022/08/20 05:13:37;;;;;;;10.40;3.60;;;17.70;99.90;;;;;;3060296;19;20010;-75
2022/08/20 05:14:38;;;;;;;7.35;3.20;;;17.80;99.90;;;;;;3060942;19;20028;-76
2022/08/20 05:15:44;;;;;;;9.77;3.53;;;17.70;99.90;;;;;;3060800;19;19998;-75
2022/08/20 05:16:45;;;;;;;10.40;3.53;;;17.70;99.90;;;;;;3060684;19;20476;-75
2022/08/20 05:17:50;;;;;;;10.98;3.30;;;17.60;99.90;;;;;;3060624;19;20035;-75
2022/08/20 05:18:51;;;;;;;9.38;3.45;;;17.70;99.90;;;;;;3060399;19;20074;-75
2022/08/20 05:19:59;;;;;;;10.45;3.10;;;17.70;99.90;;;;;;3060881;19;20002;-75
2022/08/20 05:21:04;;;;;;;9.25;3.53;;;17.80;99.90;;;;;;3060651;19;20007;-75
2022/08/20 05:22:08;;;;;;;8.32;3.28;;;17.70;99.90;;;;;;3060496;19;20028;-75
2022/08/20 05:23:11;;;;;;;12.05;3.47;;;18.60;99.90;;;;;;3060993;19;20010;-75
2022/08/20 05:24:15;;;;;;;10.73;3.38;;;17.50;99.90;;;;;;3060470;19;20006;-75
2022/08/20 05:25:16;;;;;;;9.85;3.35;;;17.70;99.90;;;;;;3060732;19;20101;-75
2022/08/20 05:26:22;;;;;;;9.40;3.10;;;17.40;99.90;;;;;;3060635;19;20010;-74
2022/08/20 05:27:25;;;;;;;9.70;2.83;;;17.60;99.90;;;;;;3059899;19;20002;-75
2022/08/20 05:28:31;;;;;;;13.82;3.17;;;17.60;99.90;;;;;;3060407;19;20035;-74
2022/08/20 05:29:33;;;;;;;12.68;3.35;;;17.80;99.90;;;;;;3060459;19;20350;-75
2022/08/20 05:30:41;;;;;;;10.18;3.00;;;17.70;99.90;;;;;;3060498;19;20036;-76
2022/08/20 05:31:45;;;;;;;10.25;2.92;;;17.70;99.90;;;;;;3060699;19;20326;-74
2022/08/20 05:32:48;;;;;;;12.80;3.08;;;17.60;99.90;;;;;;3060435;19;20022;-75